Airfield :
LOGIN :

Register | Disclaimer

   EN    FR    IT 

 










Legend :    VFR   Marginal VFR   IFR   Intensive IFR   Very Intensive IFR
Visi :
Ceiling :
>= 8 km
>= 3000ft
5 to 8 km
1000 to 3000 ft
1500m to 5 km
500 to 1000 ft
800 to 1500m
200 to 500 ft
< 800m
< 200 ft
Symbols :   Thunderstorms  Fog  Heavy snow  Heavy precipitations  Wind > 20 kt
SIGMETs :     Misc.  Thunderstorms  Icing  Turbulence  Mountain Waves  Volcanic Ashes






- Airport Elevation : 160 ft
- IATA code : LRT


LFRH - Lorient Lann Bihoue

CURRENT METAR :
  • 262100Z AUTO 26010KT 0700 0600 R25/1000N R07/0700N FG VV/// 11/11 Q1015 BECMG 0500 FG

EXPIRED METARs :
  • 262030Z AUTO 25010KT 1300 0750 R25/1400D R07/1100D BCFG VV/// 11/11 Q1015 BECMG 0500 FG
  • 262000Z AUTO 21010KT 1500 0900 R25/2000D R07/1200D BCFG VV/// 11/11 Q1015 BECMG 29005KT 0500 FG
  • 261930Z AUTO 20010KT 3800 -DZ BR OVC002 11/10 Q1015 BECMG 29005KT 0500 FG VV///
  • 261900Z AUTO 19011KT 5000 BR OVC002 10/10 Q1015 BECMG 29005KT 0500 FG VV///
  • 261830Z AUTO 17011KT 3800 -DZ BR OVC002 10/10 Q1016 BECMG 29005KT 0500 FG VV///

TAF AMD TAF LFRH
Valid from the 26 at 18:00 until the 27 at 18:00 UTC


261841Z 2618/2718 18010KT 2500 RADZ BKN002
BECMG 2619/2622 29005KT 0500 FG VV///
PROB40
TEMPO 2623/2702 0200
BECMG 2702/2704 3000 BR BKN003
PROB40
TEMPO 2704/2710 0500 RA FG VV///
BECMG 2710/2712 0800 RA FG VV///



MET'MAP, your aeronautical weather chart ! - Copyright ORBIFLY December 2007 - Disclaimer

ORBIFLY MET'MAP TEAM :

Programming & Development : Alexandra Zaïnal
Concept & original design : Baudouin d'Aumeries
Assistance for programming : Marc-Olivier Méhu
Technical & hardware support : Manuel Goepfert

Contact : metmap@orbifly.com




SOURCES & CREDITS :

   NOAA